Latest Weather Observations for Mount Moornapa

IDV60801

Issued at 6:05 am EST Wednesday 24 September 2014 (issued every 30 minutes, with the page automatically refreshed every 10 minutes)

About weather observations | Map of weather stations | Latest weather observations for VIC | Other Formats
Station Details ID: 085296 Name: MOUNT MOORNAPA Lat: -37.75 Lon: 147.14 Height: 480.0 m
Data from the previous 72 hours. | See also: Recent months at Mount Moornapa
Date/Time
EST
Temp
°C
App
Temp
°C
Dew
Point
Rel
Hum
%
Delta-T
°C
Wind Press
QNH
hPa
Press
MSL
hPa
Rain
since 9 am
mm
Dir
 
Spd
km/h
Gust
km/h
Spd
kts
Gust
kts
24/06:00am 15.1 10.9 3.9 47 5.3 NNW 15 22 8 12 - - 0.0
24/05:30am 14.8 10.6 3.9 48 5.1 N 15 22 8 12 - - 0.0
24/05:00am 14.6 10.5 4.3 50 4.9 N 15 20 8 11 - - 0.0
24/04:30am 13.5 9.8 4.4 54 4.3 N 13 19 7 10 - - 0.0
24/04:00am 13.9 9.5 4.5 53 4.5 N 17 24 9 13 - - 0.0
24/03:30am 13.8 9.4 4.7 54 4.3 N 17 24 9 13 - - 0.0
24/03:00am 14.8 11.5 4.8 51 4.8 N 11 15 6 8 - - 0.0
24/02:30am 13.8 9.8 4.9 55 4.2 N 15 19 8 10 - - 0.0
24/02:00am 13.6 11.1 3.7 51 4.6 NNW 6 11 3 6 - - 0.0
24/01:30am 14.8 11.9 4.5 50 4.9 W 9 15 5 8 - - 0.0
24/01:00am 14.2 10.9 2.5 45 5.3 W 9 15 5 8 - - 0.0
24/12:30am 13.2 9.6 2.7 49 4.8 NW 11 15 6 8 - - 0.0
24/12:00am 13.3 9.5 1.9 46 5.1 N 11 15 6 8 - - 0.0
 
Date/Time
EST
Temp
°C
App
Temp
°C
Dew
Point
Rel
Hum
%
Delta-T
°C
Wind Press
QNH
hPa
Press
MSL
hPa
Rain
since 9 am
mm
Dir
 
Spd
km/h
Gust
km/h
Spd
kts
Gust
kts
23/11:30pm 14.8 11.5 2.4 43 5.7 N 9 13 5 7 - - 0.0
23/11:00pm 13.3 9.9 1.6 45 5.2 N 9 13 5 7 - - 0.0
23/10:30pm 14.6 11.4 0.5 38 6.2 NNE 7 11 4 6 - - 0.0
23/10:00pm 14.6 10.9 -0.3 36 6.4 NNE 9 17 5 9 - - 0.0
23/09:30pm 15.0 10.9 -0.3 35 6.6 ENE 11 26 6 14 - - 0.0
23/09:00pm 15.1 11.0 -0.2 35 6.6 ENE 11 26 6 14 - - 0.0
23/08:30pm 15.1 11.4 -0.2 35 6.6 ENE 9 24 5 13 - - 0.0
23/08:00pm 14.9 10.8 0.0 36 6.5 E 11 24 6 13 - - 0.0
23/07:30pm 15.0 11.4 0.8 38 6.3 ENE 9 20 5 11 - - 0.0
23/07:00pm 15.2 11.8 1.7 40 6.1 E 9 20 5 11 - - 0.0
23/06:30pm 15.5 11.9 2.7 42 5.9 E 11 19 6 10 - - 0.0
23/06:00pm 16.0 12.8 5.0 48 5.3 E 11 22 6 12 - - 0.0
23/05:30pm 17.0 14.9 6.5 50 5.3 E 7 17 4 9 - - 0.0
23/05:00pm 18.3 16.7 8.0 51 5.4 ESE 6 17 3 9 - - 0.0
23/04:30pm 19.4 17.4 7.2 45 6.3 ESE 7 19 4 10 - - 0.0
23/04:00pm 20.5 18.6 4.9 36 7.8 SE 4 15 2 8 - - 0.0
23/03:30pm 20.5 18.0 4.5 35 8.0 SE 7 15 4 8 - - 0.0
23/03:00pm 21.0 18.4 4.1 33 8.4 SSE 7 15 4 8 - - 0.0
23/02:30pm 21.3 19.5 5.2 35 8.2 SE 4 9 2 5 - - 0.0
23/02:00pm 21.2 18.5 2.5 29 9.0 SSE 6 9 3 5 - - 0.0
23/01:30pm 21.4 19.0 4.5 33 8.4 SE 6 11 3 6 - - 0.0
23/01:00pm 21.3 19.5 5.2 35 8.2 SE 4 9 2 5 - - 0.0
23/12:30pm 21.5 20.1 5.4 35 8.2 SE 2 7 1 4 - - 0.0
23/12:00pm 20.7 19.8 7.7 43 6.9 SE 2 6 1 3 - - 0.0
23/11:30am 19.7 18.2 5.0 38 7.3 SE 2 9 1 5 - - 0.0
23/11:00am 19.6 17.8 5.6 40 7.1 NW 4 6 2 3 - - 0.0
23/10:30am 19.1 17.6 6.6 44 6.4 N 4 9 2 5 - - 0.0
23/10:00am 18.6 17.2 7.1 47 5.9 NNE 4 7 2 4 - - 0.0
23/09:30am 17.5 15.7 5.4 45 6.0 NNE 4 7 2 4 - - 0.0
23/09:00am 16.5 14.3 5.5 48 5.4 N 6 9 3 5 - - 0.0
23/08:30am 14.9 12.4 4.6 50 4.9 N 7 13 4 7 - - 0.0
23/08:00am 13.4 9.9 3.5 51 4.6 N 11 15 6 8 - - 0.0
23/07:30am 12.1 8.2 3.6 56 3.9 N 13 17 7 9 - - 0.0
23/07:00am 11.5 7.8 4.5 62 3.3 N 13 17 7 9 - - 0.0
23/06:30am 11.6 8.3 4.6 62 3.3 N 11 13 6 7 - - 0.0
23/06:00am 12.8 10.6 5.2 60 3.6 N 6 7 3 4 - - 0.0
23/05:30am 11.7 8.8 4.7 62 3.3 N 9 11 5 6 - - 0.0
23/05:00am 11.9 9.1 5.1 63 3.2 N 9 11 5 6 - - 0.0
23/04:30am 12.3 9.5 5.0 61 3.5 N 9 11 5 6 - - 0.0
23/04:00am 12.1 9.0 5.7 65 3.1 N 11 15 6 8 - - 0.0
23/03:30am 10.9 7.3 5.2 68 2.7 N 13 15 7 8 - - 0.0
23/03:00am 10.5 6.6 5.5 71 2.4 N 15 19 8 10 - - 0.0
23/02:30am 11.2 7.3 5.5 68 2.7 N 15 20 8 11 - - 0.0
23/02:00am 11.5 7.9 4.9 64 3.1 N 13 20 7 11 - - 0.0
23/01:30am 12.3 8.9 1.6 48 4.7 N 9 11 5 6 - - 0.0
23/01:00am 11.9 7.9 2.9 54 4.1 N 13 17 7 9 - - 0.0
23/12:30am 12.0 8.5 3.5 56 3.9 N 11 15 6 8 - - 0.0
23/12:00am 12.6 9.9 3.8 55 4.1 NE 7 9 4 5 - - 0.0
 
Date/Time
EST
Temp
°C
App
Temp
°C
Dew
Point
Rel
Hum
%
Delta-T
°C
Wind Press
QNH
hPa
Press
MSL
hPa
Rain
since 9 am
mm
Dir
 
Spd
km/h
Gust
km/h
Spd
kts
Gust
kts
22/11:30pm 13.4 10.8 1.1 43 5.4 ENE 4 7 2 4 - - 0.0
22/11:00pm 13.1 10.5 3.2 51 4.5 NE 6 7 3 4 - - 0.0
22/10:30pm 13.3 10.4 2.5 48 4.9 NNE 7 7 4 4 - - 0.0
22/10:00pm 13.0 10.6 4.4 56 4.0 NE 6 7 3 4 - - 0.0
22/09:30pm 13.3 10.4 -1.4 36 6.1 E 4 7 2 4 - - 0.0
22/09:00pm 13.0 9.8 -0.3 40 5.6 E 6 11 3 6 - - 0.0
22/08:30pm 13.1 9.8 -0.9 38 5.9 E 6 9 3 5 - - 0.0
22/08:00pm 12.8 9.7 1.2 45 5.1 E 7 13 4 7 - - 0.0
22/07:30pm 12.4 8.9 1.4 47 4.8 E 9 15 5 8 - - 0.0
22/07:00pm 13.0 10.0 2.0 47 4.9 E 7 17 4 9 - - 0.0
22/06:30pm 13.2 11.6 6.5 64 3.3 E 4 7 2 4 - - 0.0
22/06:00pm 13.8 12.3 8.6 71 2.7 ESE 6 9 3 5 - - 0.0
22/05:30pm 15.3 14.6 10.1 71 2.8 ESE 4 7 2 4 - - 0.0
22/05:00pm 16.4 15.4 10.3 67 3.3 SE 6 9 3 5 - - 0.0
22/04:30pm 17.4 15.9 8.5 56 4.7 SE 6 11 3 6 - - 0.0
22/04:00pm 18.2 16.5 7.6 50 5.5 SSE 6 13 3 7 - - 0.0
22/03:30pm 19.0 17.8 8.1 49 5.7 SE 4 7 2 4 - - 0.0
22/03:00pm 18.7 16.8 6.9 46 6.1 SE 6 11 3 6 - - 0.0
22/02:30pm 18.8 17.2 7.9 49 5.7 SSE 6 13 3 7 - - 0.0
22/02:00pm 18.8 16.9 6.9 46 6.1 SE 6 11 3 6 - - 0.0
22/01:30pm 18.9 17.3 8.0 49 5.7 SE 6 9 3 5 - - 0.0
22/01:00pm 18.9 17.9 8.8 52 5.4 SSE 4 7 2 4 - - 0.0
22/12:30pm 19.0 18.5 10.6 58 4.6 SSE 4 7 2 4 - - 0.0
22/12:00pm 17.9 16.7 9.5 58 4.5 S 6 9 3 5 - - 0.0
22/11:30am 17.4 16.6 9.6 60 4.2 S 4 7 2 4 - - 0.0
22/11:00am 15.9 14.5 7.4 57 4.3 S 4 7 2 4 - - 0.0
22/10:30am 16.3 15.3 7.5 56 4.5 SSE 2 6 1 3 - - 0.0
22/10:00am 16.1 14.4 3.9 44 5.8 NNE 2 6 1 3 - - 0.0
22/09:30am 13.9 11.4 4.8 54 4.3 N 7 11 4 6 - - 0.0
22/09:00am 12.2 9.6 4.4 59 3.6 N 7 13 4 7 - - 0.2
22/08:30am 10.4 7.3 3.7 63 3.0 N 9 13 5 7 - - 0.2
22/08:00am 9.6 5.8 4.0 68 2.5 N 13 17 7 9 - - 0.2
22/07:30am 8.0 4.3 4.4 78 1.6 N 13 17 7 9 - - 0.2
22/07:00am 7.6 4.7 4.9 83 1.2 N 9 11 5 6 - - 0.2
22/06:30am 6.7 3.1 5.0 89 0.8 N 13 15 7 8 - - 0.2
22/06:00am 7.0 3.0 4.8 86 1.0 N 15 17 8 9 - - 0.2
22/05:30am 6.4 3.1 4.6 88 0.8 N 11 13 6 7 - - 0.2
22/05:00am 6.9 3.7 5.2 89 0.8 N 11 11 6 6 - - 0.2
22/04:30am 6.6 3.4 5.1 90 0.7 N 11 13 6 7 - - 0.2
22/04:00am 6.8 4.6 5.4 91 0.6 NNW 6 9 3 5 - - 0.2
22/03:30am 6.1 2.5 5.2 94 0.4 N 13 17 7 9 - - 0.2
22/03:00am 6.3 2.4 5.4 94 0.4 N 15 20 8 11 - - 0.2
22/02:30am 6.5 3.5 5.8 95 0.3 N 11 17 6 9 - - 0.2
22/02:00am 6.1 3.4 5.4 95 0.3 NNE 9 11 5 6 - - 0.2
22/01:30am 6.5 3.8 5.8 95 0.3 NNE 9 13 5 7 - - 0.2
22/01:00am 6.8 4.5 5.9 94 0.4 NE 7 13 4 7 - - 0.2
22/12:30am 6.9 4.9 6.2 95 0.3 ENE 6 11 3 6 - - 0.2
22/12:00am 6.8 4.7 5.9 94 0.4 E 6 7 3 4 - - 0.2
 
Date/Time
EST
Temp
°C
App
Temp
°C
Dew
Point
Rel
Hum
%
Delta-T
°C
Wind Press
QNH
hPa
Press
MSL
hPa
Rain
since 9 am
mm
Dir
 
Spd
km/h
Gust
km/h
Spd
kts
Gust
kts
21/11:30pm 7.1 5.1 6.2 94 0.4 E 6 9 3 5 - - 0.2
21/11:00pm 7.1 5.0 6.0 93 0.5 E 6 9 3 5 - - 0.2
21/10:30pm 7.3 5.6 6.1 92 0.6 E 4 7 2 4 - - 0.2
21/10:00pm 7.4 5.4 6.2 92 0.6 ENE 6 7 3 4 - - 0.2
21/09:30pm 7.4 5.4 6.3 93 0.5 ENE 6 9 3 5 - - 0.2
21/09:00pm 7.7 5.8 6.6 93 0.5 ENE 6 9 3 5 - - 0.2
21/08:30pm 7.8 5.9 6.6 92 0.6 ENE 6 9 3 5 - - 0.2
21/08:00pm 8.1 6.1 6.9 92 0.6 E 7 11 4 6 - - 0.2
21/07:30pm 8.1 5.6 6.6 90 0.7 E 9 15 5 8 - - 0.2
21/07:00pm 8.5 6.4 6.8 89 0.8 ESE 7 15 4 8 - - 0.2
21/06:30pm 9.2 7.3 6.6 84 1.2 SE 6 11 3 6 - - 0.2
21/06:00pm 10.4 9.5 6.2 75 2.0 CALM 0 0 0 0 - - 0.2
21/05:30pm 11.0 9.1 6.6 74 2.1 SSE 6 7 3 4 - - 0.2
21/05:00pm 11.7 10.1 6.2 69 2.7 S 4 7 2 4 - - 0.2
21/04:30pm 13.0 11.1 6.8 66 3.1 S 6 9 3 5 - - 0.2
21/04:00pm 14.1 12.6 6.9 62 3.6 S 4 6 2 3 - - 0.2
21/03:30pm 13.8 12.2 6.2 60 3.7 SSW 4 9 2 5 - - 0.2
21/03:00pm 13.4 11.3 5.8 60 3.7 SW 6 11 3 6 - - 0.2
21/02:30pm 14.5 13.2 7.5 63 3.5 S 4 7 2 4 - - 0.2
21/02:00pm 13.5 11.3 6.1 61 3.6 WSW 7 13 4 7 - - 0.2
21/01:30pm 12.9 11.1 5.6 61 3.5 SSW 4 11 2 6 - - 0.2
21/01:00pm 12.0 10.1 5.0 62 3.3 SW 4 11 2 6 - - 0.2
21/12:30pm 12.4 10.3 5.6 63 3.3 SSW 6 13 3 7 - - 0.2
21/12:00pm 12.8 11.2 6.2 64 3.2 SSW 4 9 2 5 - - 0.2
21/11:30am 12.3 10.6 5.9 65 3.1 SSW 4 9 2 5 - - 0.0
21/11:00am 10.9 8.5 4.4 64 3.0 W 6 9 3 5 - - 0.0
21/10:30am 10.6 8.5 3.9 63 3.0 N 4 6 2 3 - - 0.0
21/10:00am 10.0 7.9 4.0 66 2.7 NW 4 7 2 4 - - 0.0
21/09:30am 9.1 6.9 3.1 66 2.6 NW 4 9 2 5 - - 0.0
21/09:00am 8.8 7.2 4.4 74 2.0 NW 2 6 1 3 - - 0.2
21/08:30am 8.2 6.3 4.8 79 1.5 WNW 4 6 2 3 - - 0.2
21/08:00am 7.8 5.4 4.2 78 1.6 W 6 9 3 5 - - 0.2
21/07:30am 7.4 5.0 4.5 82 1.3 WNW 6 11 3 6 - - 0.2
21/07:00am 6.8 4.5 4.6 86 1.0 NW 6 7 3 4 - - 0.2
21/06:30am 6.6 4.2 4.4 86 1.0 WNW 6 7 3 4 - - 0.2

Other Formats:

Comma delimited format used in spreadsheet applications
http://www.bom.gov.au/fwo/IDV60801/IDV60801.95913.axf

JavaScript Object Notation format (JSON) in row-major order
http://www.bom.gov.au/fwo/IDV60801/IDV60801.95913.json